sensor_id;sensor_type;location;lat;lon;timestamp;P1;durP1;ratioP1;P2;durP2;ratioP2
34134;SDS011;20410;55.578;12.968;2024-02-14T00:01:30;29.60;;;21.57;;
34134;SDS011;20410;55.578;12.968;2024-02-14T00:03:56;23.77;;;19.17;;
34134;SDS011;20410;55.578;12.968;2024-02-14T00:06:22;21.30;;;17.37;;
34134;SDS011;20410;55.578;12.968;2024-02-14T00:08:48;26.60;;;17.07;;
34134;SDS011;20410;55.578;12.968;2024-02-14T00:11:14;25.43;;;17.80;;
34134;SDS011;20410;55.578;12.968;2024-02-14T00:13:39;22.07;;;16.60;;
34134;SDS011;20410;55.578;12.968;2024-02-14T00:16:05;21.37;;;16.93;;
34134;SDS011;20410;55.578;12.968;2024-02-14T00:18:31;24.73;;;18.13;;
34134;SDS011;20410;55.578;12.968;2024-02-14T00:20:57;26.60;;;17.93;;
34134;SDS011;20410;55.578;12.968;2024-02-14T00:23:22;21.33;;;17.53;;
34134;SDS011;20410;55.578;12.968;2024-02-14T00:25:48;23.47;;;17.27;;
34134;SDS011;20410;55.578;12.968;2024-02-14T00:28:13;25.00;;;19.40;;
34134;SDS011;20410;55.578;12.968;2024-02-14T00:30:39;26.40;;;20.90;;
34134;SDS011;20410;55.578;12.968;2024-02-14T00:33:05;30.10;;;23.90;;
34134;SDS011;20410;55.578;12.968;2024-02-14T00:35:30;30.77;;;23.57;;
34134;SDS011;20410;55.578;12.968;2024-02-14T00:37:56;36.10;;;27.13;;
34134;SDS011;20410;55.578;12.968;2024-02-14T00:40:21;42.40;;;29.97;;
34134;SDS011;20410;55.578;12.968;2024-02-14T00:42:47;40.43;;;29.67;;
34134;SDS011;20410;55.578;12.968;2024-02-14T00:45:13;36.97;;;29.17;;
34134;SDS011;20410;55.578;12.968;2024-02-14T00:47:38;38.57;;;28.10;;
34134;SDS011;20410;55.578;12.968;2024-02-14T00:50:04;44.90;;;32.37;;
34134;SDS011;20410;55.578;12.968;2024-02-14T00:52:31;39.60;;;29.63;;
34134;SDS011;20410;55.578;12.968;2024-02-14T00:54:56;46.67;;;31.33;;
34134;SDS011;20410;55.578;12.968;2024-02-14T00:57:22;37.93;;;28.90;;
34134;SDS011;20410;55.578;12.968;2024-02-14T00:59:51;34.00;;;27.40;;
34134;SDS011;20410;55.578;12.968;2024-02-14T01:02:17;34.83;;;27.33;;
34134;SDS011;20410;55.578;12.968;2024-02-14T01:04:43;31.07;;;25.83;;
34134;SDS011;20410;55.578;12.968;2024-02-14T01:07:09;34.27;;;25.47;;
34134;SDS011;20410;55.578;12.968;2024-02-14T01:09:34;30.60;;;23.53;;
34134;SDS011;20410;55.578;12.968;2024-02-14T01:12:01;31.47;;;25.17;;
34134;SDS011;20410;55.578;12.968;2024-02-14T01:14:27;32.53;;;23.90;;
34134;SDS011;20410;55.578;12.968;2024-02-14T01:16:52;38.97;;;27.47;;
34134;SDS011;20410;55.578;12.968;2024-02-14T01:19:19;32.33;;;25.03;;
34134;SDS011;20410;55.578;12.968;2024-02-14T01:21:45;34.17;;;24.10;;
34134;SDS011;20410;55.578;12.968;2024-02-14T01:24:13;33.30;;;24.93;;
34134;SDS011;20410;55.578;12.968;2024-02-14T01:26:39;38.50;;;26.37;;
34134;SDS011;20410;55.578;12.968;2024-02-14T01:29:05;34.73;;;26.17;;
34134;SDS011;20410;55.578;12.968;2024-02-14T01:31:31;31.47;;;25.37;;
34134;SDS011;20410;55.578;12.968;2024-02-14T01:33:58;29.03;;;22.20;;
34134;SDS011;20410;55.578;12.968;2024-02-14T01:36:26;32.33;;;23.23;;
34134;SDS011;20410;55.578;12.968;2024-02-14T01:38:53;33.53;;;22.30;;
34134;SDS011;20410;55.578;12.968;2024-02-14T01:41:18;30.80;;;21.47;;
34134;SDS011;20410;55.578;12.968;2024-02-14T01:43:46;27.07;;;20.40;;
34134;SDS011;20410;55.578;12.968;2024-02-14T01:46:12;23.60;;;19.80;;
34134;SDS011;20410;55.578;12.968;2024-02-14T01:48:38;22.40;;;18.67;;
34134;SDS011;20410;55.578;12.968;2024-02-14T01:51:05;23.47;;;18.43;;
34134;SDS011;20410;55.578;12.968;2024-02-14T01:53:33;18.57;;;14.93;;
34134;SDS011;20410;55.578;12.968;2024-02-14T01:56:00;21.27;;;16.20;;
34134;SDS011;20410;55.578;12.968;2024-02-14T01:58:26;20.03;;;14.47;;
34134;SDS011;20410;55.578;12.968;2024-02-14T02:00:53;23.27;;;16.37;;
34134;SDS011;20410;55.578;12.968;2024-02-14T02:03:25;25.23;;;18.80;;
34134;SDS011;20410;55.578;12.968;2024-02-14T02:05:54;22.17;;;17.67;;
34134;SDS011;20410;55.578;12.968;2024-02-14T02:08:21;25.43;;;19.70;;
34134;SDS011;20410;55.578;12.968;2024-02-14T02:10:46;33.27;;;22.97;;
34134;SDS011;20410;55.578;12.968;2024-02-14T02:13:12;29.03;;;21.50;;
34134;SDS011;20410;55.578;12.968;2024-02-14T02:15:40;34.30;;;23.60;;
34134;SDS011;20410;55.578;12.968;2024-02-14T02:18:09;31.97;;;22.57;;
34134;SDS011;20410;55.578;12.968;2024-02-14T02:20:35;32.50;;;24.57;;
34134;SDS011;20410;55.578;12.968;2024-02-14T02:23:01;33.10;;;24.73;;
34134;SDS011;20410;55.578;12.968;2024-02-14T02:25:26;30.77;;;22.67;;
34134;SDS011;20410;55.578;12.968;2024-02-14T02:27:52;36.83;;;25.77;;
34134;SDS011;20410;55.578;12.968;2024-02-14T02:30:22;38.63;;;26.40;;
34134;SDS011;20410;55.578;12.968;2024-02-14T02:32:49;37.97;;;27.07;;
34134;SDS011;20410;55.578;12.968;2024-02-14T02:35:16;35.43;;;26.67;;
34134;SDS011;20410;55.578;12.968;2024-02-14T02:37:44;37.47;;;26.37;;
34134;SDS011;20410;55.578;12.968;2024-02-14T02:40:11;42.33;;;28.37;;
34134;SDS011;20410;55.578;12.968;2024-02-14T02:42:37;40.13;;;27.47;;
34134;SDS011;20410;55.578;12.968;2024-02-14T02:45:03;35.03;;;26.00;;
34134;SDS011;20410;55.578;12.968;2024-02-14T02:47:31;40.00;;;27.70;;
34134;SDS011;20410;55.578;12.968;2024-02-14T02:49:57;41.90;;;28.00;;
34134;SDS011;20410;55.578;12.968;2024-02-14T02:52:24;38.20;;;27.90;;
34134;SDS011;20410;55.578;12.968;2024-02-14T02:54:50;34.27;;;25.63;;
34134;SDS011;20410;55.578;12.968;2024-02-14T02:57:17;37.97;;;25.70;;
34134;SDS011;20410;55.578;12.968;2024-02-14T02:59:44;32.53;;;25.37;;
34134;SDS011;20410;55.578;12.968;2024-02-14T03:02:11;43.80;;;28.00;;
34134;SDS011;20410;55.578;12.968;2024-02-14T03:04:37;43.03;;;29.00;;
34134;SDS011;20410;55.578;12.968;2024-02-14T03:07:03;42.47;;;27.90;;
34134;SDS011;20410;55.578;12.968;2024-02-14T03:09:33;43.67;;;29.00;;
34134;SDS011;20410;55.578;12.968;2024-02-14T03:11:59;40.17;;;26.17;;
34134;SDS011;20410;55.578;12.968;2024-02-14T03:14:27;41.37;;;27.00;;
34134;SDS011;20410;55.578;12.968;2024-02-14T03:17:04;40.37;;;28.10;;
34134;SDS011;20410;55.578;12.968;2024-02-14T03:19:30;42.10;;;27.97;;
34134;SDS011;20410;55.578;12.968;2024-02-14T03:21:56;38.67;;;28.30;;
34134;SDS011;20410;55.578;12.968;2024-02-14T03:24:22;37.23;;;25.20;;
34134;SDS011;20410;55.578;12.968;2024-02-14T03:26:52;37.23;;;25.50;;
34134;SDS011;20410;55.578;12.968;2024-02-14T03:29:18;35.67;;;24.87;;
34134;SDS011;20410;55.578;12.968;2024-02-14T03:31:45;35.97;;;25.87;;
34134;SDS011;20410;55.578;12.968;2024-02-14T03:34:11;32.83;;;24.40;;
34134;SDS011;20410;55.578;12.968;2024-02-14T03:36:37;35.53;;;26.37;;
34134;SDS011;20410;55.578;12.968;2024-02-14T03:39:03;40.63;;;26.47;;
34134;SDS011;20410;55.578;12.968;2024-02-14T03:41:30;40.10;;;26.00;;
34134;SDS011;20410;55.578;12.968;2024-02-14T03:43:56;44.47;;;25.80;;
34134;SDS011;20410;55.578;12.968;2024-02-14T03:46:25;39.07;;;25.13;;
34134;SDS011;20410;55.578;12.968;2024-02-14T03:48:54;37.93;;;23.90;;
34134;SDS011;20410;55.578;12.968;2024-02-14T03:51:20;37.53;;;25.17;;
34134;SDS011;20410;55.578;12.968;2024-02-14T03:53:48;36.50;;;23.83;;
34134;SDS011;20410;55.578;12.968;2024-02-14T03:56:13;34.50;;;23.33;;
34134;SDS011;20410;55.578;12.968;2024-02-14T03:58:41;33.73;;;25.50;;
34134;SDS011;20410;55.578;12.968;2024-02-14T04:01:07;34.00;;;23.43;;
34134;SDS011;20410;55.578;12.968;2024-02-14T04:03:33;32.43;;;22.17;;
34134;SDS011;20410;55.578;12.968;2024-02-14T04:05:58;30.50;;;22.87;;
34134;SDS011;20410;55.578;12.968;2024-02-14T04:08:24;37.33;;;24.73;;
34134;SDS011;20410;55.578;12.968;2024-02-14T04:10:50;30.70;;;22.47;;
34134;SDS011;20410;55.578;12.968;2024-02-14T04:13:16;28.43;;;21.13;;
34134;SDS011;20410;55.578;12.968;2024-02-14T04:15:41;32.43;;;24.03;;
34134;SDS011;20410;55.578;12.968;2024-02-14T04:18:11;33.10;;;22.83;;
34134;SDS011;20410;55.578;12.968;2024-02-14T04:20:37;31.43;;;21.73;;
34134;SDS011;20410;55.578;12.968;2024-02-14T04:23:02;32.03;;;23.17;;
34134;SDS011;20410;55.578;12.968;2024-02-14T04:25:31;30.10;;;21.77;;
34134;SDS011;20410;55.578;12.968;2024-02-14T04:27:56;34.03;;;22.30;;
34134;SDS011;20410;55.578;12.968;2024-02-14T04:30:22;32.40;;;22.10;;
34134;SDS011;20410;55.578;12.968;2024-02-14T04:32:48;28.77;;;22.03;;
34134;SDS011;20410;55.578;12.968;2024-02-14T04:35:14;33.90;;;25.27;;
34134;SDS011;20410;55.578;12.968;2024-02-14T04:37:39;29.73;;;22.20;;
34134;SDS011;20410;55.578;12.968;2024-02-14T04:40:08;36.30;;;23.13;;
34134;SDS011;20410;55.578;12.968;2024-02-14T04:42:35;31.90;;;21.43;;
34134;SDS011;20410;55.578;12.968;2024-02-14T04:45:00;31.00;;;23.67;;
34134;SDS011;20410;55.578;12.968;2024-02-14T04:47:26;31.67;;;22.87;;
34134;SDS011;20410;55.578;12.968;2024-02-14T04:49:52;29.40;;;22.73;;
34134;SDS011;20410;55.578;12.968;2024-02-14T04:52:17;29.67;;;25.23;;
34134;SDS011;20410;55.578;12.968;2024-02-14T04:54:43;33.23;;;23.00;;
34134;SDS011;20410;55.578;12.968;2024-02-14T04:57:09;32.63;;;23.07;;
34134;SDS011;20410;55.578;12.968;2024-02-14T04:59:34;26.17;;;20.40;;
34134;SDS011;20410;55.578;12.968;2024-02-14T05:02:00;30.17;;;21.40;;
34134;SDS011;20410;55.578;12.968;2024-02-14T05:04:25;33.90;;;21.87;;
34134;SDS011;20410;55.578;12.968;2024-02-14T05:06:51;31.17;;;21.37;;
34134;SDS011;20410;55.578;12.968;2024-02-14T05:09:17;29.40;;;20.90;;
34134;SDS011;20410;55.578;12.968;2024-02-14T05:11:43;26.67;;;18.73;;
34134;SDS011;20410;55.578;12.968;2024-02-14T05:14:08;27.50;;;19.70;;
34134;SDS011;20410;55.578;12.968;2024-02-14T05:16:34;26.53;;;21.13;;
34134;SDS011;20410;55.578;12.968;2024-02-14T05:19:00;29.47;;;22.63;;
34134;SDS011;20410;55.578;12.968;2024-02-14T05:21:25;31.60;;;22.00;;
34134;SDS011;20410;55.578;12.968;2024-02-14T05:23:52;33.00;;;22.50;;
34134;SDS011;20410;55.578;12.968;2024-02-14T05:26:17;31.83;;;22.03;;
34134;SDS011;20410;55.578;12.968;2024-02-14T05:28:43;32.30;;;21.70;;
34134;SDS011;20410;55.578;12.968;2024-02-14T05:31:08;23.87;;;20.17;;
34134;SDS011;20410;55.578;12.968;2024-02-14T05:33:34;26.73;;;20.03;;
34134;SDS011;20410;55.578;12.968;2024-02-14T05:36:00;36.37;;;24.17;;
34134;SDS011;20410;55.578;12.968;2024-02-14T05:38:26;30.00;;;20.03;;
34134;SDS011;20410;55.578;12.968;2024-02-14T05:40:52;29.93;;;19.00;;
34134;SDS011;20410;55.578;12.968;2024-02-14T05:43:19;32.30;;;21.97;;
34134;SDS011;20410;55.578;12.968;2024-02-14T05:45:45;26.77;;;19.97;;
34134;SDS011;20410;55.578;12.968;2024-02-14T05:48:11;29.70;;;21.80;;
34134;SDS011;20410;55.578;12.968;2024-02-14T05:50:36;28.37;;;20.30;;
34134;SDS011;20410;55.578;12.968;2024-02-14T05:53:02;28.37;;;21.03;;
34134;SDS011;20410;55.578;12.968;2024-02-14T05:55:28;34.67;;;23.57;;
34134;SDS011;20410;55.578;12.968;2024-02-14T05:57:54;28.93;;;21.33;;
34134;SDS011;20410;55.578;12.968;2024-02-14T06:00:20;35.10;;;26.57;;
34134;SDS011;20410;55.578;12.968;2024-02-14T06:02:49;29.10;;;20.77;;
34134;SDS011;20410;55.578;12.968;2024-02-14T06:05:15;27.77;;;20.93;;
34134;SDS011;20410;55.578;12.968;2024-02-14T06:07:41;37.20;;;24.43;;
34134;SDS011;20410;55.578;12.968;2024-02-14T06:10:07;34.33;;;23.37;;
34134;SDS011;20410;55.578;12.968;2024-02-14T06:12:34;35.30;;;23.57;;
34134;SDS011;20410;55.578;12.968;2024-02-14T06:15:00;32.60;;;23.30;;
34134;SDS011;20410;55.578;12.968;2024-02-14T06:17:26;29.13;;;22.57;;
34134;SDS011;20410;55.578;12.968;2024-02-14T06:19:52;27.43;;;21.67;;
34134;SDS011;20410;55.578;12.968;2024-02-14T06:22:18;29.20;;;20.37;;
34134;SDS011;20410;55.578;12.968;2024-02-14T06:24:44;28.17;;;21.80;;
34134;SDS011;20410;55.578;12.968;2024-02-14T06:27:09;29.03;;;19.27;;
34134;SDS011;20410;55.578;12.968;2024-02-14T06:29:35;34.90;;;22.17;;
34134;SDS011;20410;55.578;12.968;2024-02-14T06:32:01;24.63;;;19.27;;
34134;SDS011;20410;55.578;12.968;2024-02-14T06:34:27;26.47;;;20.70;;
34134;SDS011;20410;55.578;12.968;2024-02-14T06:36:53;26.77;;;19.97;;
34134;SDS011;20410;55.578;12.968;2024-02-14T06:39:19;27.27;;;17.77;;
34134;SDS011;20410;55.578;12.968;2024-02-14T06:41:45;22.53;;;17.07;;
34134;SDS011;20410;55.578;12.968;2024-02-14T06:44:12;25.17;;;18.40;;
34134;SDS011;20410;55.578;12.968;2024-02-14T06:46:38;24.93;;;16.30;;
34134;SDS011;20410;55.578;12.968;2024-02-14T06:49:03;18.20;;;15.70;;
34134;SDS011;20410;55.578;12.968;2024-02-14T06:51:29;22.33;;;14.23;;
34134;SDS011;20410;55.578;12.968;2024-02-14T06:53:55;22.97;;;14.57;;
34134;SDS011;20410;55.578;12.968;2024-02-14T06:56:21;17.43;;;12.33;;
34134;SDS011;20410;55.578;12.968;2024-02-14T06:58:47;17.10;;;11.97;;
34134;SDS011;20410;55.578;12.968;2024-02-14T07:01:18;14.63;;;11.37;;
34134;SDS011;20410;55.578;12.968;2024-02-14T07:03:47;17.47;;;11.63;;
34134;SDS011;20410;55.578;12.968;2024-02-14T07:06:13;17.17;;;12.97;;
34134;SDS011;20410;55.578;12.968;2024-02-14T07:08:40;21.10;;;12.00;;
34134;SDS011;20410;55.578;12.968;2024-02-14T07:11:06;17.60;;;12.20;;
34134;SDS011;20410;55.578;12.968;2024-02-14T07:13:32;18.03;;;13.47;;
34134;SDS011;20410;55.578;12.968;2024-02-14T07:15:57;17.83;;;13.60;;
34134;SDS011;20410;55.578;12.968;2024-02-14T07:18:23;19.87;;;12.93;;
34134;SDS011;20410;55.578;12.968;2024-02-14T07:20:48;18.87;;;12.07;;
34134;SDS011;20410;55.578;12.968;2024-02-14T07:23:14;22.17;;;14.17;;
34134;SDS011;20410;55.578;12.968;2024-02-14T07:25:39;16.67;;;12.60;;
34134;SDS011;20410;55.578;12.968;2024-02-14T07:28:05;15.97;;;11.67;;
34134;SDS011;20410;55.578;12.968;2024-02-14T07:30:31;17.17;;;11.10;;
34134;SDS011;20410;55.578;12.968;2024-02-14T07:32:56;14.57;;;10.00;;
34134;SDS011;20410;55.578;12.968;2024-02-14T07:35:22;16.07;;;11.43;;
34134;SDS011;20410;55.578;12.968;2024-02-14T07:37:48;15.30;;;10.40;;
34134;SDS011;20410;55.578;12.968;2024-02-14T07:40:13;13.10;;;9.90;;
34134;SDS011;20410;55.578;12.968;2024-02-14T07:42:39;13.10;;;9.33;;
34134;SDS011;20410;55.578;12.968;2024-02-14T07:45:05;14.10;;;9.07;;
34134;SDS011;20410;55.578;12.968;2024-02-14T07:47:30;21.00;;;9.70;;
34134;SDS011;20410;55.578;12.968;2024-02-14T07:49:56;14.93;;;9.57;;
34134;SDS011;20410;55.578;12.968;2024-02-14T07:52:23;12.13;;;9.07;;
34134;SDS011;20410;55.578;12.968;2024-02-14T07:54:52;16.17;;;8.87;;
34134;SDS011;20410;55.578;12.968;2024-02-14T07:57:22;18.20;;;9.03;;
34134;SDS011;20410;55.578;12.968;2024-02-14T07:59:48;11.77;;;8.10;;
34134;SDS011;20410;55.578;12.968;2024-02-14T08:02:13;10.43;;;7.63;;
34134;SDS011;20410;55.578;12.968;2024-02-14T08:04:39;12.53;;;7.97;;
34134;SDS011;20410;55.578;12.968;2024-02-14T08:07:04;13.27;;;7.60;;
34134;SDS011;20410;55.578;12.968;2024-02-14T08:09:30;10.37;;;7.47;;
34134;SDS011;20410;55.578;12.968;2024-02-14T08:11:56;10.27;;;6.80;;
34134;SDS011;20410;55.578;12.968;2024-02-14T08:14:21;10.03;;;6.40;;
34134;SDS011;20410;55.578;12.968;2024-02-14T08:16:47;11.50;;;7.33;;
34134;SDS011;20410;55.578;12.968;2024-02-14T08:19:13;13.17;;;6.77;;
34134;SDS011;20410;55.578;12.968;2024-02-14T08:21:38;11.30;;;6.70;;
34134;SDS011;20410;55.578;12.968;2024-02-14T08:24:04;11.43;;;6.97;;
34134;SDS011;20410;55.578;12.968;2024-02-14T08:26:30;10.43;;;6.63;;
34134;SDS011;20410;55.578;12.968;2024-02-14T08:28:56;7.33;;;6.47;;
34134;SDS011;20410;55.578;12.968;2024-02-14T08:31:23;11.20;;;6.80;;
34134;SDS011;20410;55.578;12.968;2024-02-14T08:33:48;9.43;;;6.10;;
34134;SDS011;20410;55.578;12.968;2024-02-14T08:36:14;8.27;;;5.73;;
34134;SDS011;20410;55.578;12.968;2024-02-14T08:38:41;9.43;;;5.77;;
34134;SDS011;20410;55.578;12.968;2024-02-14T08:41:07;10.53;;;5.80;;
34134;SDS011;20410;55.578;12.968;2024-02-14T08:43:33;9.87;;;5.93;;
34134;SDS011;20410;55.578;12.968;2024-02-14T08:45:58;10.67;;;5.97;;
34134;SDS011;20410;55.578;12.968;2024-02-14T08:48:24;7.57;;;6.10;;
34134;SDS011;20410;55.578;12.968;2024-02-14T08:50:52;9.73;;;6.23;;
34134;SDS011;20410;55.578;12.968;2024-02-14T08:53:18;9.00;;;6.17;;
34134;SDS011;20410;55.578;12.968;2024-02-14T08:55:43;10.03;;;5.77;;
34134;SDS011;20410;55.578;12.968;2024-02-14T08:58:09;7.43;;;5.67;;
34134;SDS011;20410;55.578;12.968;2024-02-14T09:00:35;10.37;;;6.13;;
34134;SDS011;20410;55.578;12.968;2024-02-14T09:03:01;9.30;;;5.63;;
34134;SDS011;20410;55.578;12.968;2024-02-14T09:05:28;10.10;;;5.47;;
34134;SDS011;20410;55.578;12.968;2024-02-14T09:07:54;11.73;;;5.70;;
34134;SDS011;20410;55.578;12.968;2024-02-14T09:10:20;7.83;;;5.37;;
34134;SDS011;20410;55.578;12.968;2024-02-14T09:12:46;7.43;;;5.73;;
34134;SDS011;20410;55.578;12.968;2024-02-14T09:15:11;8.13;;;5.87;;
34134;SDS011;20410;55.578;12.968;2024-02-14T09:17:37;7.43;;;5.70;;
34134;SDS011;20410;55.578;12.968;2024-02-14T09:20:05;9.10;;;5.60;;
34134;SDS011;20410;55.578;12.968;2024-02-14T09:22:34;8.80;;;5.37;;
34134;SDS011;20410;55.578;12.968;2024-02-14T09:25:00;6.43;;;5.20;;
34134;SDS011;20410;55.578;12.968;2024-02-14T09:27:29;8.60;;;5.33;;
34134;SDS011;20410;55.578;12.968;2024-02-14T09:29:58;10.93;;;6.30;;
34134;SDS011;20410;55.578;12.968;2024-02-14T09:32:23;7.63;;;5.73;;
34134;SDS011;20410;55.578;12.968;2024-02-14T09:34:49;9.30;;;5.53;;
34134;SDS011;20410;55.578;12.968;2024-02-14T09:37:15;9.73;;;5.60;;
34134;SDS011;20410;55.578;12.968;2024-02-14T09:39:41;6.30;;;5.13;;
34134;SDS011;20410;55.578;12.968;2024-02-14T09:42:09;10.77;;;6.40;;
34134;SDS011;20410;55.578;12.968;2024-02-14T09:44:38;8.77;;;6.03;;
34134;SDS011;20410;55.578;12.968;2024-02-14T09:47:05;10.50;;;6.43;;
34134;SDS011;20410;55.578;12.968;2024-02-14T09:49:32;8.13;;;5.40;;
34134;SDS011;20410;55.578;12.968;2024-02-14T09:52:04;9.50;;;5.97;;
34134;SDS011;20410;55.578;12.968;2024-02-14T09:54:31;8.10;;;5.97;;
34134;SDS011;20410;55.578;12.968;2024-02-14T09:57:00;10.63;;;5.77;;
34134;SDS011;20410;55.578;12.968;2024-02-14T09:59:27;11.13;;;5.87;;
34134;SDS011;20410;55.578;12.968;2024-02-14T10:01:54;8.37;;;5.97;;
34134;SDS011;20410;55.578;12.968;2024-02-14T10:04:19;11.33;;;6.30;;
34134;SDS011;20410;55.578;12.968;2024-02-14T10:06:47;8.40;;;6.03;;
34134;SDS011;20410;55.578;12.968;2024-02-14T10:09:17;9.80;;;6.10;;
34134;SDS011;20410;55.578;12.968;2024-02-14T10:11:46;7.83;;;5.60;;
34134;SDS011;20410;55.578;12.968;2024-02-14T10:14:12;8.00;;;5.87;;
34134;SDS011;20410;55.578;12.968;2024-02-14T10:16:38;8.43;;;5.97;;
34134;SDS011;20410;55.578;12.968;2024-02-14T10:19:04;11.27;;;5.83;;
34134;SDS011;20410;55.578;12.968;2024-02-14T10:21:32;9.13;;;6.67;;
34134;SDS011;20410;55.578;12.968;2024-02-14T10:24:01;8.47;;;6.23;;
34134;SDS011;20410;55.578;12.968;2024-02-14T10:26:28;8.03;;;5.50;;
34134;SDS011;20410;55.578;12.968;2024-02-14T10:28:56;9.27;;;6.23;;
34134;SDS011;20410;55.578;12.968;2024-02-14T10:31:23;7.27;;;6.33;;
34134;SDS011;20410;55.578;12.968;2024-02-14T10:33:50;9.20;;;6.13;;
34134;SDS011;20410;55.578;12.968;2024-02-14T10:36:17;8.77;;;5.80;;
34134;SDS011;20410;55.578;12.968;2024-02-14T10:38:45;8.77;;;6.30;;
34134;SDS011;20410;55.578;12.968;2024-02-14T10:41:14;9.50;;;5.90;;
34134;SDS011;20410;55.578;12.968;2024-02-14T10:43:41;11.43;;;6.60;;
34134;SDS011;20410;55.578;12.968;2024-02-14T10:46:09;7.17;;;6.00;;
34134;SDS011;20410;55.578;12.968;2024-02-14T10:48:40;12.53;;;7.10;;
34134;SDS011;20410;55.578;12.968;2024-02-14T10:51:07;9.77;;;6.87;;
34134;SDS011;20410;55.578;12.968;2024-02-14T10:53:37;11.10;;;6.43;;
34134;SDS011;20410;55.578;12.968;2024-02-14T10:56:10;9.23;;;6.43;;
34134;SDS011;20410;55.578;12.968;2024-02-14T10:58:38;10.03;;;6.17;;
34134;SDS011;20410;55.578;12.968;2024-02-14T11:01:05;8.27;;;6.10;;
34134;SDS011;20410;55.578;12.968;2024-02-14T11:03:32;11.20;;;7.70;;
34134;SDS011;20410;55.578;12.968;2024-02-14T11:06:00;9.77;;;6.13;;
34134;SDS011;20410;55.578;12.968;2024-02-14T11:08:28;8.17;;;6.30;;
34134;SDS011;20410;55.578;12.968;2024-02-14T11:10:56;7.10;;;5.83;;
34134;SDS011;20410;55.578;12.968;2024-02-14T11:13:28;10.47;;;6.50;;
34134;SDS011;20410;55.578;12.968;2024-02-14T11:15:55;8.43;;;6.33;;
34134;SDS011;20410;55.578;12.968;2024-02-14T11:18:25;9.87;;;6.50;;
34134;SDS011;20410;55.578;12.968;2024-02-14T11:20:58;11.00;;;6.67;;
34134;SDS011;20410;55.578;12.968;2024-02-14T11:23:24;9.60;;;5.70;;
34134;SDS011;20410;55.578;12.968;2024-02-14T11:25:58;7.17;;;5.80;;
34134;SDS011;20410;55.578;12.968;2024-02-14T11:28:40;8.23;;;6.00;;
34134;SDS011;20410;55.578;12.968;2024-02-14T11:31:06;7.77;;;6.00;;
34134;SDS011;20410;55.578;12.968;2024-02-14T11:33:34;8.33;;;6.17;;
34134;SDS011;20410;55.578;12.968;2024-02-14T11:36:01;7.60;;;6.00;;
34134;SDS011;20410;55.578;12.968;2024-02-14T11:38:35;6.43;;;5.70;;
34134;SDS011;20410;55.578;12.968;2024-02-14T11:41:01;8.03;;;5.90;;
34134;SDS011;20410;55.578;12.968;2024-02-14T11:43:28;8.63;;;5.77;;
34134;SDS011;20410;55.578;12.968;2024-02-14T11:45:54;9.03;;;5.43;;
34134;SDS011;20410;55.578;12.968;2024-02-14T11:48:20;6.27;;;5.47;;
34134;SDS011;20410;55.578;12.968;2024-02-14T11:50:48;8.47;;;5.70;;
34134;SDS011;20410;55.578;12.968;2024-02-14T11:53:14;9.33;;;5.40;;
34134;SDS011;20410;55.578;12.968;2024-02-14T11:55:44;9.33;;;5.90;;
34134;SDS011;20410;55.578;12.968;2024-02-14T11:58:11;6.97;;;5.73;;
34134;SDS011;20410;55.578;12.968;2024-02-14T12:00:43;9.30;;;6.13;;
34134;SDS011;20410;55.578;12.968;2024-02-14T12:03:19;7.57;;;6.07;;
34134;SDS011;20410;55.578;12.968;2024-02-14T12:05:47;6.67;;;5.60;;
34134;SDS011;20410;55.578;12.968;2024-02-14T12:08:15;11.20;;;6.07;;
34134;SDS011;20410;55.578;12.968;2024-02-14T12:10:44;9.40;;;5.83;;
34134;SDS011;20410;55.578;12.968;2024-02-14T12:13:15;7.50;;;5.53;;
34134;SDS011;20410;55.578;12.968;2024-02-14T12:15:45;6.27;;;5.67;;
34134;SDS011;20410;55.578;12.968;2024-02-14T12:18:11;8.80;;;6.10;;
34134;SDS011;20410;55.578;12.968;2024-02-14T12:20:38;8.07;;;5.57;;
34134;SDS011;20410;55.578;12.968;2024-02-14T12:23:04;8.10;;;6.33;;
34134;SDS011;20410;55.578;12.968;2024-02-14T12:25:30;6.50;;;5.47;;
34134;SDS011;20410;55.578;12.968;2024-02-14T12:27:56;7.87;;;5.60;;
34134;SDS011;20410;55.578;12.968;2024-02-14T12:30:23;10.80;;;6.60;;
34134;SDS011;20410;55.578;12.968;2024-02-14T12:33:22;7.40;;;6.07;;
34134;SDS011;20410;55.578;12.968;2024-02-14T12:35:55;7.37;;;6.67;;
34134;SDS011;20410;55.578;12.968;2024-02-14T12:38:23;8.83;;;5.47;;
34134;SDS011;20410;55.578;12.968;2024-02-14T12:40:49;8.17;;;5.63;;
34134;SDS011;20410;55.578;12.968;2024-02-14T12:43:16;9.07;;;5.77;;
34134;SDS011;20410;55.578;12.968;2024-02-14T12:45:42;9.67;;;6.57;;
34134;SDS011;20410;55.578;12.968;2024-02-14T12:48:08;10.67;;;5.93;;
34134;SDS011;20410;55.578;12.968;2024-02-14T12:50:37;7.50;;;5.57;;
34134;SDS011;20410;55.578;12.968;2024-02-14T12:53:06;7.43;;;5.33;;
34134;SDS011;20410;55.578;12.968;2024-02-14T12:55:32;8.63;;;5.63;;
34134;SDS011;20410;55.578;12.968;2024-02-14T12:57:58;8.37;;;5.60;;
34134;SDS011;20410;55.578;12.968;2024-02-14T13:00:24;7.07;;;5.73;;
34134;SDS011;20410;55.578;12.968;2024-02-14T13:02:51;13.27;;;5.70;;
34134;SDS011;20410;55.578;12.968;2024-02-14T13:05:18;8.63;;;5.23;;
34134;SDS011;20410;55.578;12.968;2024-02-14T13:07:44;8.57;;;5.47;;
34134;SDS011;20410;55.578;12.968;2024-02-14T13:10:10;8.67;;;5.73;;
34134;SDS011;20410;55.578;12.968;2024-02-14T13:12:37;7.73;;;5.30;;
34134;SDS011;20410;55.578;12.968;2024-02-14T13:15:03;8.03;;;5.73;;
34134;SDS011;20410;55.578;12.968;2024-02-14T13:17:29;10.50;;;6.30;;
34134;SDS011;20410;55.578;12.968;2024-02-14T13:19:55;8.90;;;5.60;;
34134;SDS011;20410;55.578;12.968;2024-02-14T13:22:20;8.27;;;5.27;;
34134;SDS011;20410;55.578;12.968;2024-02-14T13:24:46;7.73;;;4.60;;
34134;SDS011;20410;55.578;12.968;2024-02-14T13:27:12;8.90;;;5.07;;
34134;SDS011;20410;55.578;12.968;2024-02-14T13:29:39;5.90;;;4.90;;
34134;SDS011;20410;55.578;12.968;2024-02-14T13:32:05;9.20;;;4.87;;
34134;SDS011;20410;55.578;12.968;2024-02-14T13:34:32;6.10;;;4.70;;
34134;SDS011;20410;55.578;12.968;2024-02-14T13:36:58;5.93;;;5.20;;
34134;SDS011;20410;55.578;12.968;2024-02-14T13:39:24;7.17;;;4.97;;
34134;SDS011;20410;55.578;12.968;2024-02-14T13:41:50;9.03;;;5.97;;
34134;SDS011;20410;55.578;12.968;2024-02-14T13:44:17;5.87;;;5.13;;
34134;SDS011;20410;55.578;12.968;2024-02-14T13:46:43;8.57;;;5.10;;
34134;SDS011;20410;55.578;12.968;2024-02-14T13:49:10;8.00;;;5.00;;
34134;SDS011;20410;55.578;12.968;2024-02-14T13:51:37;4.83;;;4.40;;
34134;SDS011;20410;55.578;12.968;2024-02-14T13:54:03;5.97;;;4.83;;
34134;SDS011;20410;55.578;12.968;2024-02-14T13:56:29;9.17;;;5.53;;
34134;SDS011;20410;55.578;12.968;2024-02-14T13:58:55;6.93;;;5.00;;
34134;SDS011;20410;55.578;12.968;2024-02-14T14:01:20;8.53;;;5.03;;
34134;SDS011;20410;55.578;12.968;2024-02-14T14:03:46;7.37;;;4.93;;
34134;SDS011;20410;55.578;12.968;2024-02-14T14:06:12;6.60;;;4.43;;
34134;SDS011;20410;55.578;12.968;2024-02-14T14:08:39;5.70;;;4.60;;
34134;SDS011;20410;55.578;12.968;2024-02-14T14:11:04;8.30;;;5.07;;
34134;SDS011;20410;55.578;12.968;2024-02-14T14:13:30;7.10;;;5.13;;
34134;SDS011;20410;55.578;12.968;2024-02-14T14:15:58;5.77;;;4.70;;